sensor_id;sensor_type;location;lat;lon;timestamp;pressure;altitude;pressure_sealevel;temperature;humidity
40490;BME280;26196;52.302;10.572;2023-04-10T00:03:40;101555.72;;;13.62;45.72
40490;BME280;26196;52.302;10.572;2023-04-10T00:08:15;101549.69;;;13.59;45.50
40490;BME280;26196;52.302;10.572;2023-04-10T00:12:16;101549.72;;;13.55;45.13
40490;BME280;26196;52.302;10.572;2023-04-10T00:16:16;101552.44;;;13.52;45.56
40490;BME280;26196;52.302;10.572;2023-04-10T00:20:54;101541.97;;;13.49;45.59
40490;BME280;26196;52.302;10.572;2023-04-10T00:24:55;101549.03;;;13.47;45.47
40490;BME280;26196;52.302;10.572;2023-04-10T00:28:55;101543.00;;;13.44;45.70
40490;BME280;26196;52.302;10.572;2023-04-10T00:32:55;101547.41;;;13.42;45.03
40490;BME280;26196;52.302;10.572;2023-04-10T00:36:57;101541.31;;;13.40;45.22
40490;BME280;26196;52.302;10.572;2023-04-10T00:40:58;101545.78;;;13.38;45.28
40490;BME280;26196;52.302;10.572;2023-04-10T00:44:59;101544.09;;;13.33;44.95
40490;BME280;26196;52.302;10.572;2023-04-10T00:49:33;101538.84;;;13.32;44.80
40490;BME280;26196;52.302;10.572;2023-04-10T00:53:33;101540.69;;;13.30;45.05
40490;BME280;26196;52.302;10.572;2023-04-10T00:57:34;101542.47;;;13.28;44.57
40490;BME280;26196;52.302;10.572;2023-04-10T01:02:12;101539.03;;;13.23;45.22
40490;BME280;26196;52.302;10.572;2023-04-10T01:10:48;101520.09;;;13.07;44.65
40490;BME280;26196;52.302;10.572;2023-04-10T01:15:02;101543.63;;;13.13;44.58
40490;BME280;26196;52.302;10.572;2023-04-10T01:28:20;101540.22;;;13.08;44.57
40490;BME280;26196;52.302;10.572;2023-04-10T01:32:24;101537.75;;;13.00;44.10
40490;BME280;26196;52.302;10.572;2023-04-10T01:36:32;101533.34;;;13.02;44.15
40490;BME280;26196;52.302;10.572;2023-04-10T01:41:01;101527.31;;;12.97;44.67
40490;BME280;26196;52.302;10.572;2023-04-10T01:45:02;101531.78;;;12.94;44.18
40490;BME280;26196;52.302;10.572;2023-04-10T01:49:04;101539.75;;;12.89;44.20
40490;BME280;26196;52.302;10.572;2023-04-10T01:53:42;101534.56;;;12.86;44.45
40490;BME280;26196;52.302;10.572;2023-04-10T01:57:44;101534.56;;;12.86;44.36
40490;BME280;26196;52.302;10.572;2023-04-10T02:02:19;101544.22;;;12.85;44.36
40490;BME280;26196;52.302;10.572;2023-04-10T02:06:40;101537.34;;;12.78;44.08
40490;BME280;26196;52.302;10.572;2023-04-10T02:11:16;101534.66;;;12.80;43.74
40490;BME280;26196;52.302;10.572;2023-04-10T02:15:21;101530.41;;;12.74;43.87
40490;BME280;26196;52.302;10.572;2023-04-10T02:19:24;101528.75;;;12.70;44.04
40490;BME280;26196;52.302;10.572;2023-04-10T02:28:07;101522.72;;;12.63;43.67
40490;BME280;26196;52.302;10.572;2023-04-10T02:32:07;101518.41;;;12.61;44.09
40490;BME280;26196;52.302;10.572;2023-04-10T02:36:42;101520.16;;;12.60;43.73
40490;BME280;26196;52.302;10.572;2023-04-10T02:40:42;101515.84;;;12.56;44.08
40490;BME280;26196;52.302;10.572;2023-04-10T02:44:43;101516.78;;;12.54;43.85
40490;BME280;26196;52.302;10.572;2023-04-10T02:49:17;101513.38;;;12.50;44.11
40490;BME280;26196;52.302;10.572;2023-04-10T02:53:18;101507.25;;;12.48;43.24
40490;BME280;26196;52.302;10.572;2023-04-10T02:57:18;101505.56;;;12.47;43.64
40490;BME280;26196;52.302;10.572;2023-04-10T03:01:20;101499.44;;;12.45;43.34
40490;BME280;26196;52.302;10.572;2023-04-10T03:05:21;101493.41;;;12.41;43.21
40490;BME280;26196;52.302;10.572;2023-04-10T03:09:21;101498.69;;;12.40;43.71
40490;BME280;26196;52.302;10.572;2023-04-10T03:13:21;101490.03;;;12.35;43.29
40490;BME280;26196;52.302;10.572;2023-04-10T03:17:25;101488.31;;;12.34;43.69
40490;BME280;26196;52.302;10.572;2023-04-10T03:22:02;101484.00;;;12.30;43.69
40490;BME280;26196;52.302;10.572;2023-04-10T03:26:03;101485.78;;;12.27;43.27
40490;BME280;26196;52.302;10.572;2023-04-10T03:30:04;101478.00;;;12.23;43.67
40490;BME280;26196;52.302;10.572;2023-04-10T03:34:38;101475.38;;;12.23;43.59
40490;BME280;26196;52.302;10.572;2023-04-10T03:38:39;101471.88;;;12.22;43.57
40490;BME280;26196;52.302;10.572;2023-04-10T03:43:16;101464.13;;;12.16;43.71
40490;BME280;26196;52.302;10.572;2023-04-10T03:47:17;101462.50;;;12.09;43.54
40490;BME280;26196;52.302;10.572;2023-04-10T03:51:54;101460.69;;;12.13;43.07
40490;BME280;26196;52.302;10.572;2023-04-10T03:55:55;101456.44;;;12.06;43.53
40490;BME280;26196;52.302;10.572;2023-04-10T03:59:55;101457.31;;;12.06;43.46
40490;BME280;26196;52.302;10.572;2023-04-10T04:03:55;101462.59;;;12.03;43.14
40490;BME280;26196;52.302;10.572;2023-04-10T04:07:56;101460.06;;;11.98;43.74
40490;BME280;26196;52.302;10.572;2023-04-10T04:12:33;101461.88;;;11.95;42.87
40490;BME280;26196;52.302;10.572;2023-04-10T04:16:33;101463.59;;;11.97;43.44
40490;BME280;26196;52.302;10.572;2023-04-10T04:21:07;101459.19;;;11.98;43.13
40490;BME280;26196;52.302;10.572;2023-04-10T04:25:08;101454.88;;;11.95;42.57
40490;BME280;26196;52.302;10.572;2023-04-10T04:29:44;101462.72;;;11.97;42.70
40490;BME280;26196;52.302;10.572;2023-04-10T04:33:44;101461.03;;;11.93;43.05
40490;BME280;26196;52.302;10.572;2023-04-10T04:37:45;101470.63;;;11.94;42.74
40490;BME280;26196;52.302;10.572;2023-04-10T04:51:00;101458.44;;;11.91;42.31
40490;BME280;26196;52.302;10.572;2023-04-10T04:55:00;101455.84;;;11.90;42.52
40490;BME280;26196;52.302;10.572;2023-04-10T04:59:01;101455.84;;;11.90;42.17
40490;BME280;26196;52.302;10.572;2023-04-10T05:03:38;101448.84;;;11.89;42.81
40490;BME280;26196;52.302;10.572;2023-04-10T05:07:38;101448.03;;;11.87;42.12
40490;BME280;26196;52.302;10.572;2023-04-10T05:11:39;101455.91;;;11.85;42.40
40490;BME280;26196;52.302;10.572;2023-04-10T05:16:13;101445.47;;;11.82;42.27
40490;BME280;26196;52.302;10.572;2023-04-10T05:20:14;101457.72;;;11.81;42.45
40490;BME280;26196;52.302;10.572;2023-04-10T05:24:14;101453.44;;;11.76;42.54
40490;BME280;26196;52.302;10.572;2023-04-10T05:28:15;101449.00;;;11.78;42.34
40490;BME280;26196;52.302;10.572;2023-04-10T05:32:15;101451.63;;;11.78;41.92
40490;BME280;26196;52.302;10.572;2023-04-10T05:36:15;101456.03;;;11.77;42.73
40490;BME280;26196;52.302;10.572;2023-04-10T05:40:17;101456.06;;;11.74;42.37
40490;BME280;26196;52.302;10.572;2023-04-10T05:44:54;101463.03;;;11.75;42.38
40490;BME280;26196;52.302;10.572;2023-04-10T05:53:32;101458.72;;;11.73;42.47
40490;BME280;26196;52.302;10.572;2023-04-10T05:57:32;101462.22;;;11.73;42.20
40490;BME280;26196;52.302;10.572;2023-04-10T06:02:07;101457.91;;;11.71;42.50
40490;BME280;26196;52.302;10.572;2023-04-10T06:06:44;101451.75;;;11.72;42.67
40490;BME280;26196;52.302;10.572;2023-04-10T06:15:56;101460.47;;;11.72;42.78
40490;BME280;26196;52.302;10.572;2023-04-10T06:20:33;101460.53;;;11.71;42.81
40490;BME280;26196;52.302;10.572;2023-04-10T06:29:11;101455.34;;;11.66;43.24
40490;BME280;26196;52.302;10.572;2023-04-10T06:56:34;101437.78;;;11.70;43.65
40490;BME280;26196;52.302;10.572;2023-04-10T07:00:34;101439.56;;;11.69;43.56
40490;BME280;26196;52.302;10.572;2023-04-10T07:05:09;101429.06;;;11.69;44.26
40490;BME280;26196;52.302;10.572;2023-04-10T07:09:46;101420.25;;;11.73;44.33
40490;BME280;26196;52.302;10.572;2023-04-10T07:13:46;101418.50;;;11.72;44.48
40490;BME280;26196;52.302;10.572;2023-04-10T07:17:47;101413.22;;;11.75;44.15
40490;BME280;26196;52.302;10.572;2023-04-10T07:22:24;101402.72;;;11.77;44.30
40490;BME280;26196;52.302;10.572;2023-04-10T07:26:59;101411.44;;;11.77;44.37
40490;BME280;26196;52.302;10.572;2023-04-10T07:31:00;101398.31;;;11.79;44.57
40490;BME280;26196;52.302;10.572;2023-04-10T07:35:35;101402.63;;;11.81;44.99
40490;BME280;26196;52.302;10.572;2023-04-10T07:40:12;101402.56;;;11.86;44.68
40490;BME280;26196;52.302;10.572;2023-04-10T07:49:24;101392.81;;;11.93;45.21
40490;BME280;26196;52.302;10.572;2023-04-10T08:03:13;101384.53;;;12.14;46.73
40490;BME280;26196;52.302;10.572;2023-04-10T08:07:14;101375.00;;;12.10;45.83
40490;BME280;26196;52.302;10.572;2023-04-10T08:11:49;101373.16;;;12.15;46.59
40490;BME280;26196;52.302;10.572;2023-04-10T08:15:49;101361.75;;;12.18;46.22
40490;BME280;26196;52.302;10.572;2023-04-10T08:20:02;101362.53;;;12.21;46.05
40490;BME280;26196;52.302;10.572;2023-04-10T08:24:37;101366.84;;;12.24;47.05
40490;BME280;26196;52.302;10.572;2023-04-10T08:29:12;101366.72;;;12.30;47.10
40490;BME280;26196;52.302;10.572;2023-04-10T08:33:49;101357.81;;;12.37;46.91
40490;BME280;26196;52.302;10.572;2023-04-10T08:37:50;101360.38;;;12.40;47.33
40490;BME280;26196;52.302;10.572;2023-04-10T08:42:25;101333.44;;;12.32;47.84
40490;BME280;26196;52.302;10.572;2023-04-10T08:47:00;101357.59;;;12.48;48.08
40490;BME280;26196;52.302;10.572;2023-04-10T08:51:36;101353.19;;;12.50;48.01
40490;BME280;26196;52.302;10.572;2023-04-10T09:00:49;101343.38;;;12.58;48.13
40490;BME280;26196;52.302;10.572;2023-04-10T09:05:26;101338.94;;;12.60;47.73
40490;BME280;26196;52.302;10.572;2023-04-10T09:09:26;101330.91;;;12.66;47.89
40490;BME280;26196;52.302;10.572;2023-04-10T09:13:41;101322.97;;;12.69;48.08
40490;BME280;26196;52.302;10.572;2023-04-10T09:17:57;101314.16;;;12.72;48.32
40490;BME280;26196;52.302;10.572;2023-04-10T09:22:34;101309.72;;;12.74;47.51
40490;BME280;26196;52.302;10.572;2023-04-10T09:26:35;101307.88;;;12.79;48.31
40490;BME280;26196;52.302;10.572;2023-04-10T09:30:37;101295.56;;;12.81;48.11
40490;BME280;26196;52.302;10.572;2023-04-10T09:35:13;101289.28;;;12.87;48.09
40490;BME280;26196;52.302;10.572;2023-04-10T09:39:51;101281.31;;;12.90;48.56
40490;BME280;26196;52.302;10.572;2023-04-10T09:49:06;101267.91;;;13.01;48.69
40490;BME280;26196;52.302;10.572;2023-04-10T09:58:21;101256.25;;;13.12;49.19
40490;BME280;26196;52.302;10.572;2023-04-10T10:02:58;101246.47;;;13.18;49.46
40490;BME280;26196;52.302;10.572;2023-04-10T10:12:10;101223.41;;;13.29;49.05
40490;BME280;26196;52.302;10.572;2023-04-10T10:16:46;101222.44;;;13.33;48.65
40490;BME280;26196;52.302;10.572;2023-04-10T10:21:23;101212.66;;;13.38;47.95
40490;BME280;26196;52.302;10.572;2023-04-10T10:25:24;101196.72;;;13.44;47.98
40490;BME280;26196;52.302;10.572;2023-04-10T10:29:28;101194.81;;;13.49;48.41
40490;BME280;26196;52.302;10.572;2023-04-10T10:34:02;101193.78;;;13.55;48.00
40490;BME280;26196;52.302;10.572;2023-04-10T10:38:40;101176.06;;;13.62;48.39
40490;BME280;26196;52.302;10.572;2023-04-10T10:56:36;101126.75;;;13.96;49.83
40490;BME280;26196;52.302;10.572;2023-04-10T11:01:10;101117.66;;;14.07;49.62
40490;BME280;26196;52.302;10.572;2023-04-10T11:23:32;101090.72;;;14.52;49.40
40490;BME280;26196;52.302;10.572;2023-04-10T11:28:18;101076.41;;;14.60;48.87
40490;BME280;26196;52.302;10.572;2023-04-10T11:32:45;101062.78;;;14.73;48.92
40490;BME280;26196;52.302;10.572;2023-04-10T11:36:49;101058.22;;;14.78;47.68
40490;BME280;26196;52.302;10.572;2023-04-10T11:41:00;101053.81;;;14.78;47.84
40490;BME280;26196;52.302;10.572;2023-04-10T11:45:29;101035.16;;;14.84;48.11
40490;BME280;26196;52.302;10.572;2023-04-10T11:49:31;101034.13;;;14.88;48.75
40490;BME280;26196;52.302;10.572;2023-04-10T11:53:31;101031.31;;;14.93;48.66
40490;BME280;26196;52.302;10.572;2023-04-10T12:02:12;101009.81;;;15.04;48.19
40490;BME280;26196;52.302;10.572;2023-04-10T12:06:54;101005.13;;;15.12;48.22
40490;BME280;26196;52.302;10.572;2023-04-10T12:10:55;100987.31;;;15.17;48.10
40490;BME280;26196;52.302;10.572;2023-04-10T12:15:29;100979.25;;;15.22;48.02
40490;BME280;26196;52.302;10.572;2023-04-10T12:19:30;100969.34;;;15.28;47.66
40490;BME280;26196;52.302;10.572;2023-04-10T12:23:32;100967.38;;;15.34;47.49
40490;BME280;26196;52.302;10.572;2023-04-10T12:28:06;100960.00;;;15.42;46.82
40490;BME280;26196;52.302;10.572;2023-04-10T12:32:41;100944.78;;;15.48;46.38
40490;BME280;26196;52.302;10.572;2023-04-10T12:37:17;100945.34;;;15.57;46.12
40490;BME280;26196;52.302;10.572;2023-04-10T12:41:22;100942.50;;;15.61;46.33
40490;BME280;26196;52.302;10.572;2023-04-10T12:45:57;100934.41;;;15.66;46.10
40490;BME280;26196;52.302;10.572;2023-04-10T12:58:46;100913.72;;;15.77;45.95
40490;BME280;26196;52.302;10.572;2023-04-10T13:03:21;100898.81;;;15.76;45.73
40490;BME280;26196;52.302;10.572;2023-04-10T13:07:21;100905.38;;;15.88;46.24
40490;BME280;26196;52.302;10.572;2023-04-10T13:20:54;100887.28;;;15.99;44.99
40490;BME280;26196;52.302;10.572;2023-04-10T13:25:32;100877.41;;;16.03;45.27
40490;BME280;26196;52.302;10.572;2023-04-10T13:30:07;100859.69;;;16.06;45.14
40490;BME280;26196;52.302;10.572;2023-04-10T13:34:07;100858.59;;;16.10;44.69
40490;BME280;26196;52.302;10.572;2023-04-10T13:38:45;100844.34;;;16.14;44.47
40490;BME280;26196;52.302;10.572;2023-04-10T13:42:46;100840.72;;;16.17;44.76
40490;BME280;26196;52.302;10.572;2023-04-10T13:46:47;100838.88;;;16.19;45.00
40490;BME280;26196;52.302;10.572;2023-04-10T13:51:24;100822.94;;;16.21;44.55
40490;BME280;26196;52.302;10.572;2023-04-10T13:59:59;100817.38;;;16.27;43.86
40490;BME280;26196;52.302;10.572;2023-04-10T14:04:33;100819.09;;;16.28;44.89
40490;BME280;26196;52.302;10.572;2023-04-10T14:08:33;100808.53;;;16.28;45.32
40490;BME280;26196;52.302;10.572;2023-04-10T14:17:11;100794.97;;;16.35;44.99
40490;BME280;26196;52.302;10.572;2023-04-10T14:21:45;100787.88;;;16.36;45.06
40490;BME280;26196;52.302;10.572;2023-04-10T14:25:46;100787.09;;;16.34;45.02
40490;BME280;26196;52.302;10.572;2023-04-10T14:30:22;100776.31;;;16.38;45.24
40490;BME280;26196;52.302;10.572;2023-04-10T14:34:58;100760.41;;;16.40;45.09
40490;BME280;26196;52.302;10.572;2023-04-10T14:38:59;100744.41;;;16.43;44.94
40490;BME280;26196;52.302;10.572;2023-04-10T14:42:59;100740.81;;;16.44;44.61
40490;BME280;26196;52.302;10.572;2023-04-10T14:46:59;100725.75;;;16.46;44.44
40490;BME280;26196;52.302;10.572;2023-04-10T14:51:34;100714.25;;;16.47;45.01
40490;BME280;26196;52.302;10.572;2023-04-10T14:55:34;100706.25;;;16.49;45.00
40490;BME280;26196;52.302;10.572;2023-04-10T15:00:10;100695.69;;;16.49;45.42
40490;BME280;26196;52.302;10.572;2023-04-10T15:04:44;100685.06;;;16.50;45.04
40490;BME280;26196;52.302;10.572;2023-04-10T15:22:58;100660.13;;;16.56;45.04
40490;BME280;26196;52.302;10.572;2023-04-10T15:27:32;100655.69;;;16.56;45.45
40490;BME280;26196;52.302;10.572;2023-04-10T15:32:09;100647.75;;;16.56;45.15
40490;BME280;26196;52.302;10.572;2023-04-10T15:41:24;100621.22;;;16.58;44.89
40490;BME280;26196;52.302;10.572;2023-04-10T15:45:24;100608.81;;;16.60;44.96
40490;BME280;26196;52.302;10.572;2023-04-10T15:54:02;100581.53;;;16.59;44.94
40490;BME280;26196;52.302;10.572;2023-04-10T15:58:38;100573.53;;;16.61;44.64
40490;BME280;26196;52.302;10.572;2023-04-10T16:02:38;100565.50;;;16.62;44.85
40490;BME280;26196;52.302;10.572;2023-04-10T16:07:15;100555.78;;;16.63;44.71
40490;BME280;26196;52.302;10.572;2023-04-10T16:16:29;100520.59;;;16.62;44.30
40490;BME280;26196;52.302;10.572;2023-04-10T16:20:30;100519.66;;;16.63;44.15
40490;BME280;26196;52.302;10.572;2023-04-10T16:24:31;100518.97;;;16.60;43.72
40490;BME280;26196;52.302;10.572;2023-04-10T16:29:08;100512.59;;;16.64;44.33
40490;BME280;26196;52.302;10.572;2023-04-10T16:38:19;100493.25;;;16.63;44.47
40490;BME280;26196;52.302;10.572;2023-04-10T16:42:57;100478.25;;;16.64;44.13
40490;BME280;26196;52.302;10.572;2023-04-10T16:47:33;100470.38;;;16.62;43.89
40490;BME280;26196;52.302;10.572;2023-04-10T16:51:33;100457.25;;;16.61;44.18
40490;BME280;26196;52.302;10.572;2023-04-10T16:55:34;100459.91;;;16.61;43.79
40490;BME280;26196;52.302;10.572;2023-04-10T17:00:08;100460.75;;;16.61;44.21
40490;BME280;26196;52.302;10.572;2023-04-10T17:04:09;100460.75;;;16.61;44.06
40490;BME280;26196;52.302;10.572;2023-04-10T17:08:47;100449.41;;;16.59;43.67
40490;BME280;26196;52.302;10.572;2023-04-10T17:13:25;100443.09;;;16.62;43.38
40490;BME280;26196;52.302;10.572;2023-04-10T17:17:25;100424.69;;;16.60;42.84
40490;BME280;26196;52.302;10.572;2023-04-10T17:21:25;100429.22;;;16.58;42.59
40490;BME280;26196;52.302;10.572;2023-04-10T17:26:03;100424.69;;;16.60;42.09
40490;BME280;26196;52.302;10.572;2023-04-10T17:30:38;100426.47;;;16.60;41.77
40490;BME280;26196;52.302;10.572;2023-04-10T17:39:16;100405.34;;;16.60;41.93
40490;BME280;26196;52.302;10.572;2023-04-10T17:43:53;100393.97;;;16.58;42.09
40490;BME280;26196;52.302;10.572;2023-04-10T17:52:30;100382.56;;;16.57;42.08
40490;BME280;26196;52.302;10.572;2023-04-10T17:57:08;100382.66;;;16.56;42.12
40490;BME280;26196;52.302;10.572;2023-04-10T18:05:45;100386.31;;;16.53;41.89
40490;BME280;26196;52.302;10.572;2023-04-10T18:09:45;100374.81;;;16.54;42.62
40490;BME280;26196;52.302;10.572;2023-04-10T18:13:46;100376.50;;;16.55;42.64
40490;BME280;26196;52.302;10.572;2023-04-10T18:17:47;100381.78;;;16.55;43.17
40490;BME280;26196;52.302;10.572;2023-04-10T18:22:24;100371.22;;;16.55;43.66
40490;BME280;26196;52.302;10.572;2023-04-10T18:26:59;100351.69;;;16.58;42.97
40490;BME280;26196;52.302;10.572;2023-04-10T18:30:59;100360.59;;;16.57;43.18
40490;BME280;26196;52.302;10.572;2023-04-10T18:35:00;100350.19;;;16.54;43.15
40490;BME280;26196;52.302;10.572;2023-04-10T18:39:36;100351.19;;;16.51;42.79
40490;BME280;26196;52.302;10.572;2023-04-10T18:44:11;100340.81;;;16.48;42.46
40490;BME280;26196;52.302;10.572;2023-04-10T18:48:48;100335.41;;;16.50;42.54
40490;BME280;26196;52.302;10.572;2023-04-10T18:52:52;100333.81;;;16.47;42.31
40490;BME280;26196;52.302;10.572;2023-04-10T18:56:53;100326.81;;;16.46;42.28
40490;BME280;26196;52.302;10.572;2023-04-10T19:01:30;100312.84;;;16.44;42.38
40490;BME280;26196;52.302;10.572;2023-04-10T19:10:42;100288.28;;;16.42;42.59
40490;BME280;26196;52.302;10.572;2023-04-10T19:15:19;100292.66;;;16.43;42.34
40490;BME280;26196;52.302;10.572;2023-04-10T19:19:19;100282.75;;;16.47;42.29
40490;BME280;26196;52.302;10.572;2023-04-10T19:23:54;100283.78;;;16.44;42.45
40490;BME280;26196;52.302;10.572;2023-04-10T19:33:07;100276.03;;;16.41;41.74
40490;BME280;26196;52.302;10.572;2023-04-10T19:37:42;100250.09;;;16.32;41.50
40490;BME280;26196;52.302;10.572;2023-04-10T19:42:17;100251.13;;;16.29;41.56
40490;BME280;26196;52.302;10.572;2023-04-10T19:46:55;100248.59;;;16.28;41.67
40490;BME280;26196;52.302;10.572;2023-04-10T19:51:32;100238.97;;;16.27;41.43
40490;BME280;26196;52.302;10.572;2023-04-10T19:56:10;100237.19;;;16.27;41.02
40490;BME280;26196;52.302;10.572;2023-04-10T20:05:08;100245.34;;;16.23;41.19
40490;BME280;26196;52.302;10.572;2023-04-10T20:09:43;100236.47;;;16.24;40.91
40490;BME280;26196;52.302;10.572;2023-04-10T20:14:20;100235.81;;;16.20;40.73
40490;BME280;26196;52.302;10.572;2023-04-10T20:23:34;100223.56;;;16.19;40.74
40490;BME280;26196;52.302;10.572;2023-04-10T20:28:10;100214.50;;;16.23;41.18
40490;BME280;26196;52.302;10.572;2023-04-10T20:37:22;100178.47;;;16.22;41.33
40490;BME280;26196;52.302;10.572;2023-04-10T20:41:59;100171.41;;;16.23;41.16
40490;BME280;26196;52.302;10.572;2023-04-10T20:46:34;100153.94;;;16.20;41.17
40490;BME280;26196;52.302;10.572;2023-04-10T20:51:11;100146.69;;;16.24;41.37
40490;BME280;26196;52.302;10.572;2023-04-10T20:55:52;100143.19;;;16.23;41.14
40490;BME280;26196;52.302;10.572;2023-04-10T21:04:50;100130.19;;;16.20;41.38
40490;BME280;26196;52.302;10.572;2023-04-10T21:08:53;100124.97;;;16.18;41.12
40490;BME280;26196;52.302;10.572;2023-04-10T21:13:30;100103.84;;;16.18;41.34
40490;BME280;26196;52.302;10.572;2023-04-10T21:17:30;100096.09;;;16.15;41.19
40490;BME280;26196;52.302;10.572;2023-04-10T21:30:43;100073.47;;;16.11;40.84
40490;BME280;26196;52.302;10.572;2023-04-10T21:35:17;100075.34;;;16.09;40.71
40490;BME280;26196;52.302;10.572;2023-04-10T21:39:17;100068.53;;;16.05;40.81
40490;BME280;26196;52.302;10.572;2023-04-10T21:47:59;100055.91;;;16.10;40.99
40490;BME280;26196;52.302;10.572;2023-04-10T21:52:36;100051.00;;;16.04;40.71
40490;BME280;26196;52.302;10.572;2023-04-10T21:56:37;100053.53;;;16.06;40.28
40490;BME280;26196;52.302;10.572;2023-04-10T22:05:36;100049.88;;;16.08;40.70
40490;BME280;26196;52.302;10.572;2023-04-10T22:10:13;100045.03;;;16.01;40.86
40490;BME280;26196;52.302;10.572;2023-04-10T22:14:13;100043.44;;;15.98;40.47
40490;BME280;26196;52.302;10.572;2023-04-10T22:18:51;100039.00;;;15.99;40.64
40490;BME280;26196;52.302;10.572;2023-04-10T22:22:51;100030.06;;;16.01;40.67
40490;BME280;26196;52.302;10.572;2023-04-10T22:27:28;100047.41;;;16.05;40.90
40490;BME280;26196;52.302;10.572;2023-04-10T22:31:29;100061.03;;;15.97;41.16
40490;BME280;26196;52.302;10.572;2023-04-10T22:35:29;100055.94;;;15.94;41.59
40490;BME280;26196;52.302;10.572;2023-04-10T22:39:30;100050.88;;;16.06;41.68
40490;BME280;26196;52.302;10.572;2023-04-10T22:43:30;100054.41;;;16.06;42.20
40490;BME280;26196;52.302;10.572;2023-04-10T22:47:30;100037.97;;;16.01;41.78
40490;BME280;26196;52.302;10.572;2023-04-10T22:51:30;100025.69;;;16.00;42.20
40490;BME280;26196;52.302;10.572;2023-04-10T22:56:05;100016.84;;;16.01;42.38
40490;BME280;26196;52.302;10.572;2023-04-10T23:00:06;100020.94;;;16.07;42.50
40490;BME280;26196;52.302;10.572;2023-04-10T23:04:07;100013.00;;;16.07;42.58
40490;BME280;26196;52.302;10.572;2023-04-10T23:08:44;100004.97;;;16.08;42.78
40490;BME280;26196;52.302;10.572;2023-04-10T23:12:45;99996.22;;;16.08;43.00
40490;BME280;26196;52.302;10.572;2023-04-10T23:17:19;99996.31;;;16.06;42.86
40490;BME280;26196;52.302;10.572;2023-04-10T23:21:20;99989.31;;;16.05;42.82
40490;BME280;26196;52.302;10.572;2023-04-10T23:25:21;99991.03;;;16.06;43.00
40490;BME280;26196;52.302;10.572;2023-04-10T23:29:21;99991.97;;;16.05;42.64
40490;BME280;26196;52.302;10.572;2023-04-10T23:33:22;99993.56;;;16.08;43.29
40490;BME280;26196;52.302;10.572;2023-04-10T23:37:22;99989.13;;;16.08;43.18
40490;BME280;26196;52.302;10.572;2023-04-10T23:41:22;99991.78;;;16.08;43.38
40490;BME280;26196;52.302;10.572;2023-04-10T23:45:57;99989.13;;;16.08;43.29
40490;BME280;26196;52.302;10.572;2023-04-10T23:49:57;99994.41;;;16.08;43.74
40490;BME280;26196;52.302;10.572;2023-04-10T23:53:58;99997.06;;;16.08;43.69
40490;BME280;26196;52.302;10.572;2023-04-10T23:58:32;100005.84;;;16.09;43.48
